Time;durP1;ratioP1;P1;durP2;ratioP2;P2;SDS_P1;SDS_P2;PMS_P1;PMS_P2;Temp;Humidity;BMP_temperature;BMP_pressure;BME280_temperature;BME280_humidity;BME280_pressure;Samples;Min_cycle;Max_cycle;Signal;HPM_P1;HPM_P2
2023/12/11 00:01:04;;;;;;;17.63;4.90;;;8.00;99.90;;;;;;5123953;27;20047;-65
2023/12/11 00:03:30;;;;;;;12.40;4.80;;;8.00;99.90;;;;;;5105012;27;20398;-65
2023/12/11 00:05:56;;;;;;;14.80;5.43;;;8.00;99.90;;;;;;5123299;27;20162;-66
2023/12/11 00:08:22;;;;;;;20.02;5.93;;;8.00;99.90;;;;;;5123330;27;20125;-65
2023/12/11 00:10:48;;;;;;;15.82;4.78;;;8.00;99.90;;;;;;5122548;27;20138;-65
2023/12/11 00:13:14;;;;;;;24.45;6.40;;;8.00;99.90;;;;;;5123436;27;20099;-65
2023/12/11 00:15:39;;;;;;;16.10;6.60;;;8.00;99.90;;;;;;5123877;27;20130;-65
2023/12/11 00:18:05;;;;;;;24.98;6.95;;;8.00;99.90;;;;;;5105000;27;20387;-66
2023/12/11 00:20:32;;;;;;;19.02;6.35;;;8.00;99.90;;;;;;5123041;27;20419;-66
2023/12/11 00:22:58;;;;;;;19.73;6.20;;;8.10;99.90;;;;;;5123497;27;20050;-68
2023/12/11 00:25:24;;;;;;;20.50;5.05;;;8.00;99.90;;;;;;5122354;27;20785;-66
2023/12/11 00:27:51;;;;;;;17.17;5.97;;;8.00;99.90;;;;;;5103876;27;20061;-66
2023/12/11 00:30:17;;;;;;;18.80;5.85;;;8.00;99.90;;;;;;5122881;27;20250;-66
2023/12/11 00:32:43;;;;;;;19.02;5.70;;;8.10;99.90;;;;;;5123633;27;20059;-66
2023/12/11 00:35:09;;;;;;;16.98;6.53;;;8.00;99.90;;;;;;5122708;27;20498;-65
2023/12/11 00:37:35;;;;;;;15.48;5.00;;;8.00;99.90;;;;;;5122450;27;20078;-66
2023/12/11 00:40:00;;;;;;;19.30;6.90;;;8.10;99.90;;;;;;5122585;27;20209;-65
2023/12/11 00:42:26;;;;;;;26.10;7.47;;;8.10;99.90;;;;;;5103166;28;20104;-65
2023/12/11 00:44:52;;;;;;;19.38;7.20;;;8.10;99.90;;;;;;5123314;27;20035;-66
2023/12/11 00:47:18;;;;;;;23.27;6.75;;;8.10;99.90;;;;;;5121407;27;20190;-64
2023/12/11 00:49:44;;;;;;;21.85;6.70;;;8.00;99.90;;;;;;5138111;27;20099;-65
2023/12/11 00:52:09;;;;;;;31.60;8.60;;;8.10;99.90;;;;;;5122279;27;20043;-66
2023/12/11 00:54:35;;;;;;;24.10;7.82;;;8.00;99.90;;;;;;5121996;27;20046;-65
2023/12/11 00:57:02;;;;;;;30.55;7.90;;;8.10;99.90;;;;;;5122267;28;20050;-65
2023/12/11 00:59:28;;;;;;;21.35;6.65;;;8.10;99.90;;;;;;5103941;28;20054;-66
2023/12/11 01:01:54;;;;;;;27.77;8.43;;;8.10;99.90;;;;;;5122965;28;20043;-65
2023/12/11 01:04:19;;;;;;;24.27;8.02;;;8.10;99.90;;;;;;5123067;28;20036;-66
2023/12/11 01:06:45;;;;;;;22.77;7.40;;;8.10;99.90;;;;;;5123235;27;20441;-66
2023/12/11 01:09:12;;;;;;;20.70;7.00;;;8.10;99.90;;;;;;5122634;27;20062;-66
2023/12/11 01:11:39;;;;;;;23.45;7.13;;;8.10;99.90;;;;;;5125593;27;20088;-66
2023/12/11 01:14:05;;;;;;;28.63;7.10;;;8.10;99.90;;;;;;5126583;27;20299;-67
2023/12/11 01:16:31;;;;;;;32.08;8.30;;;8.10;99.90;;;;;;5107143;27;20043;-65
2023/12/11 01:18:57;;;;;;;21.25;7.53;;;8.10;99.90;;;;;;5091235;27;20042;-66
2023/12/11 01:21:22;;;;;;;28.27;8.80;;;8.10;99.90;;;;;;5107879;27;20039;-65
2023/12/11 01:23:48;;;;;;;24.77;7.07;;;8.10;99.90;;;;;;5126619;27;20374;-66
2023/12/11 01:26:14;;;;;;;31.92;7.03;;;8.10;99.90;;;;;;5106421;27;20046;-66
2023/12/11 01:28:40;;;;;;;28.60;7.90;;;8.10;99.90;;;;;;5126621;27;20046;-67
2023/12/11 01:31:06;;;;;;;27.60;8.77;;;8.10;99.90;;;;;;5126899;27;20039;-66
2023/12/11 01:33:32;;;;;;;14.82;6.55;;;8.10;99.90;;;;;;5127155;27;20489;-65
2023/12/11 01:35:58;;;;;;;23.50;8.07;;;8.10;99.90;;;;;;5126087;27;20194;-66
2023/12/11 01:38:24;;;;;;;21.20;7.65;;;8.10;99.90;;;;;;5125798;27;20529;-66
2023/12/11 01:40:50;;;;;;;25.13;7.50;;;8.10;99.90;;;;;;5106000;27;20114;-67
2023/12/11 01:43:18;;;;;;;23.95;7.93;;;8.10;99.90;;;;;;5126754;27;20038;-66
2023/12/11 01:45:46;;;;;;;26.60;8.52;;;8.10;99.90;;;;;;5121886;27;20050;-66
2023/12/11 01:48:12;;;;;;;22.40;7.40;;;8.10;99.90;;;;;;5125908;27;20105;-66
2023/12/11 01:50:39;;;;;;;18.70;7.25;;;8.20;99.90;;;;;;5125959;27;20035;-68
2023/12/11 01:53:07;;;;;;;20.70;5.50;;;8.10;99.90;;;;;;5105292;27;20188;-66
2023/12/11 01:55:34;;;;;;;24.55;6.57;;;8.20;99.90;;;;;;5122495;27;21504;-66
2023/12/11 01:58:01;;;;;;;26.20;6.90;;;8.10;99.90;;;;;;5125261;27;20055;-66
2023/12/11 02:00:27;;;;;;;29.38;6.93;;;8.20;99.90;;;;;;5124727;27;20482;-66
2023/12/11 02:02:54;;;;;;;20.92;8.02;;;8.20;99.90;;;;;;5125504;27;20039;-66
2023/12/11 02:05:20;;;;;;;19.40;7.28;;;8.20;99.90;;;;;;5125315;27;20054;-66
2023/12/11 02:07:45;;;;;;;16.08;6.93;;;8.20;99.90;;;;;;5124837;27;20042;-67
2023/12/11 02:10:11;;;;;;;25.20;8.35;;;8.20;99.90;;;;;;5125425;27;20042;-66
2023/12/11 02:12:38;;;;;;;19.55;6.32;;;8.20;99.90;;;;;;5126949;27;20064;-67
2023/12/11 02:15:04;;;;;;;28.15;8.10;;;8.20;99.90;;;;;;5109077;27;20035;-66
2023/12/11 02:17:30;;;;;;;17.00;7.00;;;8.20;99.90;;;;;;5109174;27;20039;-65
2023/12/11 02:19:56;;;;;;;19.92;8.13;;;8.20;99.90;;;;;;5125711;27;20046;-66
2023/12/11 02:22:21;;;;;;;30.08;7.20;;;8.20;99.90;;;;;;5125459;27;20043;-64
2023/12/11 02:24:50;;;;;;;21.52;7.35;;;8.20;99.90;;;;;;5072198;27;20454;-66
2023/12/11 02:27:16;;;;;;;23.90;8.65;;;8.20;99.90;;;;;;5105847;27;20092;-65
2023/12/11 02:29:42;;;;;;;18.95;7.95;;;8.20;99.90;;;;;;5125217;27;20688;-66
2023/12/11 02:32:08;;;;;;;22.52;7.72;;;8.20;99.90;;;;;;5125664;27;20054;-67
2023/12/11 02:34:33;;;;;;;24.85;6.78;;;8.20;99.90;;;;;;5125855;27;20047;-65
2023/12/11 02:36:59;;;;;;;27.35;6.88;;;8.10;99.90;;;;;;5124630;27;20431;-66
2023/12/11 02:39:25;;;;;;;22.80;7.43;;;8.20;99.90;;;;;;5124969;27;20047;-65
2023/12/11 02:41:51;;;;;;;21.85;6.55;;;8.20;99.90;;;;;;5125699;27;20040;-66
2023/12/11 02:44:16;;;;;;;22.33;7.80;;;8.20;99.90;;;;;;5126860;27;20035;-65
2023/12/11 02:46:42;;;;;;;27.48;7.20;;;8.20;99.90;;;;;;5126127;27;20044;-66
2023/12/11 02:49:08;;;;;;;22.92;7.35;;;8.20;99.90;;;;;;5126033;27;20039;-65
2023/12/11 02:51:33;;;;;;;19.90;8.02;;;8.20;99.90;;;;;;5124915;27;20092;-65
2023/12/11 02:53:59;;;;;;;30.88;9.52;;;8.20;99.90;;;;;;5125210;27;20079;-65
2023/12/11 02:56:25;;;;;;;24.25;8.43;;;8.20;99.90;;;;;;5122855;27;20070;-65
2023/12/11 02:58:54;;;;;;;31.70;9.32;;;8.20;99.90;;;;;;5125072;27;20038;-65
2023/12/11 03:01:20;;;;;;;17.92;7.88;;;8.10;99.90;;;;;;5123734;27;21173;-65
2023/12/11 03:03:46;;;;;;;18.40;7.80;;;8.10;99.90;;;;;;5105430;27;20039;-65
2023/12/11 03:06:20;;;;;;;27.20;9.73;;;8.20;99.90;;;;;;5122745;27;20050;-65
2023/12/11 03:08:49;;;;;;;24.10;8.10;;;8.20;99.90;;;;;;5123687;27;20038;-66
2023/12/11 03:11:15;;;;;;;25.52;8.98;;;8.10;99.90;;;;;;5103553;27;20191;-66
2023/12/11 03:13:41;;;;;;;25.17;8.65;;;8.20;99.90;;;;;;5104715;27;20043;-66
2023/12/11 03:16:11;;;;;;;25.85;7.82;;;8.20;99.90;;;;;;5124915;27;20130;-67
2023/12/11 03:18:37;;;;;;;26.08;7.63;;;8.20;99.90;;;;;;5124802;27;20065;-65
2023/12/11 03:21:03;;;;;;;27.17;8.18;;;8.10;99.90;;;;;;5105174;27;20443;-65
2023/12/11 03:23:28;;;;;;;28.40;7.80;;;8.20;99.90;;;;;;5124113;27;20049;-66
2023/12/11 03:25:55;;;;;;;26.98;8.65;;;8.10;99.90;;;;;;5123683;27;20433;-66
2023/12/11 03:28:21;;;;;;;30.75;9.23;;;8.20;99.90;;;;;;5124259;27;20396;-66
2023/12/11 03:30:46;;;;;;;31.58;8.93;;;8.10;99.90;;;;;;5124091;27;20058;-66
2023/12/11 03:33:12;;;;;;;31.70;9.70;;;8.10;99.90;;;;;;5123928;27;20073;-65
2023/12/11 03:35:38;;;;;;;21.00;8.43;;;8.20;99.90;;;;;;5105006;27;20074;-66
2023/12/11 03:38:04;;;;;;;23.98;8.13;;;8.10;99.90;;;;;;5123988;27;20051;-66
2023/12/11 03:40:29;;;;;;;25.35;8.15;;;8.10;99.90;;;;;;5122990;27;20031;-65
2023/12/11 03:42:55;;;;;;;34.45;11.23;;;8.20;99.90;;;;;;5104467;27;20050;-65
2023/12/11 03:45:21;;;;;;;18.33;6.68;;;8.10;99.90;;;;;;5123909;27;20042;-65
2023/12/11 03:47:46;;;;;;;20.00;7.57;;;8.20;99.90;;;;;;5123929;27;20043;-65
2023/12/11 03:50:12;;;;;;;37.00;9.93;;;8.20;99.90;;;;;;5124361;27;20090;-65
2023/12/11 03:52:38;;;;;;;39.42;9.68;;;8.20;99.90;;;;;;5124104;27;20189;-65
2023/12/11 03:55:06;;;;;;;23.60;8.85;;;8.20;99.90;;;;;;5123758;27;20449;-66
2023/12/11 03:57:31;;;;;;;22.52;6.50;;;8.10;99.90;;;;;;5103710;27;20038;-65
2023/12/11 03:59:57;;;;;;;26.15;8.93;;;8.20;99.90;;;;;;5124811;27;20047;-65
2023/12/11 04:02:23;;;;;;;25.08;8.25;;;8.10;99.90;;;;;;5123648;27;20053;-65
2023/12/11 04:04:49;;;;;;;22.77;9.02;;;8.20;99.90;;;;;;5123890;27;20097;-64
2023/12/11 04:07:15;;;;;;;33.55;9.85;;;8.10;99.90;;;;;;5123286;27;20505;-65
2023/12/11 04:09:41;;;;;;;22.98;6.88;;;8.20;99.90;;;;;;5123880;27;20043;-65
2023/12/11 04:12:06;;;;;;;33.13;10.38;;;8.20;99.90;;;;;;5103276;27;20068;-64
2023/12/11 04:14:32;;;;;;;39.45;9.85;;;8.20;99.90;;;;;;5124013;27;20043;-64
2023/12/11 04:16:58;;;;;;;34.40;7.75;;;8.20;99.90;;;;;;5103952;27;20408;-64
2023/12/11 04:19:24;;;;;;;23.88;8.60;;;8.20;99.90;;;;;;5123843;27;20033;-64
2023/12/11 04:21:49;;;;;;;26.65;8.05;;;8.20;99.90;;;;;;5123105;27;20100;-65
2023/12/11 04:24:15;;;;;;;24.90;8.27;;;8.10;99.90;;;;;;5103728;27;20063;-66
2023/12/11 04:26:41;;;;;;;23.45;8.10;;;8.20;99.90;;;;;;5103220;27;20043;-67
2023/12/11 04:29:07;;;;;;;25.25;8.75;;;8.20;99.90;;;;;;5123027;27;20126;-66
2023/12/11 04:31:33;;;;;;;30.67;9.48;;;8.20;99.90;;;;;;5104947;27;20055;-65
2023/12/11 04:34:00;;;;;;;41.83;10.07;;;8.20;99.90;;;;;;5123689;27;20066;-66
2023/12/11 04:36:26;;;;;;;25.17;8.13;;;8.20;99.90;;;;;;5122936;27;20518;-66
2023/12/11 04:38:52;;;;;;;26.92;8.02;;;8.20;99.90;;;;;;5122175;27;20152;-66
2023/12/11 04:41:18;;;;;;;20.42;7.40;;;8.20;99.90;;;;;;5122094;27;20122;-66
2023/12/11 04:43:43;;;;;;;26.58;7.53;;;8.20;99.90;;;;;;5138912;27;20039;-66
2023/12/11 04:46:09;;;;;;;23.25;7.68;;;8.20;99.90;;;;;;5122832;27;20478;-66
2023/12/11 04:48:35;;;;;;;22.23;7.80;;;8.20;99.90;;;;;;5120679;27;20243;-66
2023/12/11 04:51:01;;;;;;;34.92;8.80;;;8.20;99.90;;;;;;5121308;28;20043;-66
2023/12/11 04:53:26;;;;;;;22.48;7.70;;;8.20;99.90;;;;;;5123020;27;20062;-66
2023/12/11 04:55:52;;;;;;;33.85;8.88;;;8.20;99.90;;;;;;5122274;27;20428;-66
2023/12/11 04:58:20;;;;;;;28.40;8.55;;;8.20;99.90;;;;;;5122149;27;20147;-66
2023/12/11 05:00:46;;;;;;;22.92;7.13;;;8.20;99.90;;;;;;5123082;28;20243;-66
2023/12/11 05:03:11;;;;;;;28.73;8.07;;;8.20;99.90;;;;;;5122897;28;20035;-65
2023/12/11 05:05:37;;;;;;;25.73;8.75;;;8.20;99.90;;;;;;5123100;27;20054;-65
2023/12/11 05:08:03;;;;;;;26.73;7.97;;;8.20;99.90;;;;;;5102931;28;20035;-66
2023/12/11 05:10:29;;;;;;;21.92;8.07;;;8.20;99.90;;;;;;5122908;28;20043;-66
2023/12/11 05:12:55;;;;;;;23.60;7.32;;;8.20;99.90;;;;;;5121999;28;20070;-65
2023/12/11 05:15:20;;;;;;;26.90;8.23;;;8.20;99.90;;;;;;5122761;28;20035;-65
2023/12/11 05:17:46;;;;;;;24.20;8.60;;;8.20;99.90;;;;;;5122753;28;20080;-64
2023/12/11 05:20:17;;;;;;;24.10;7.90;;;8.20;99.90;;;;;;5121769;27;20122;-65
2023/12/11 05:22:43;;;;;;;34.75;9.60;;;8.20;99.90;;;;;;5103666;28;20039;-65
2023/12/11 05:25:09;;;;;;;32.95;7.70;;;8.30;99.90;;;;;;5122811;28;20046;-66
2023/12/11 05:27:35;;;;;;;22.17;8.65;;;8.30;99.90;;;;;;5122087;28;20043;-66
2023/12/11 05:30:01;;;;;;;23.75;6.45;;;8.20;99.90;;;;;;5123138;27;20047;-65
2023/12/11 05:32:27;;;;;;;28.98;6.63;;;8.30;99.90;;;;;;5122357;27;20035;-65
2023/12/11 05:34:52;;;;;;;24.30;6.60;;;8.20;99.90;;;;;;5122961;28;20071;-65
2023/12/11 05:37:18;;;;;;;18.77;7.28;;;8.20;99.90;;;;;;5122595;28;20046;-66
2023/12/11 05:39:44;;;;;;;20.90;8.57;;;8.20;99.90;;;;;;5122103;27;20537;-65
2023/12/11 05:42:10;;;;;;;16.15;5.85;;;8.20;99.90;;;;;;5121503;28;20051;-66
2023/12/11 05:44:35;;;;;;;25.50;9.02;;;8.20;99.90;;;;;;5122961;27;20049;-66
2023/12/11 05:47:01;;;;;;;23.95;6.28;;;8.30;99.90;;;;;;5102748;28;20505;-66
2023/12/11 05:49:27;;;;;;;21.50;7.97;;;8.30;99.90;;;;;;5122712;28;20043;-66
2023/12/11 05:51:53;;;;;;;26.08;7.32;;;8.30;99.90;;;;;;5103034;28;20141;-66
2023/12/11 05:54:19;;;;;;;25.67;7.97;;;8.30;99.90;;;;;;5122636;28;20439;-66
2023/12/11 05:56:45;;;;;;;18.85;6.05;;;8.30;99.90;;;;;;5104484;27;20080;-67
2023/12/11 05:59:11;;;;;;;22.90;5.68;;;8.30;99.90;;;;;;5126105;27;20043;-66
2023/12/11 06:01:37;;;;;;;20.33;7.07;;;8.30;99.90;;;;;;5123578;27;20135;-66
2023/12/11 06:04:03;;;;;;;19.08;6.97;;;8.30;99.90;;;;;;5122421;27;20534;-66
2023/12/11 06:06:29;;;;;;;22.08;7.65;;;8.30;99.90;;;;;;5122773;27;20398;-66
2023/12/11 06:08:55;;;;;;;16.17;5.38;;;8.30;99.90;;;;;;5123167;27;20048;-66
2023/12/11 06:11:20;;;;;;;20.27;6.13;;;8.30;99.90;;;;;;5121794;27;20046;-66
2023/12/11 06:13:46;;;;;;;18.33;6.65;;;8.30;99.90;;;;;;5124266;27;20058;-66
2023/12/11 06:16:13;;;;;;;21.65;6.72;;;8.30;99.90;;;;;;5121280;27;20087;-66
2023/12/11 06:18:39;;;;;;;19.95;6.53;;;8.30;99.90;;;;;;5123520;27;20054;-66
2023/12/11 06:21:18;;;;;;;16.20;6.28;;;8.30;99.90;;;;;;5122982;27;20043;-67
2023/12/11 06:23:44;;;;;;;11.15;5.80;;;8.30;99.90;;;;;;5120004;27;20043;-66
2023/12/11 06:26:10;;;;;;;16.35;5.25;;;8.30;99.90;;;;;;5120685;27;20043;-66
2023/12/11 06:28:36;;;;;;;22.42;6.63;;;8.30;99.90;;;;;;5102862;27;20039;-65
2023/12/11 06:31:03;;;;;;;21.13;6.35;;;8.30;99.90;;;;;;5121340;27;20139;-65
2023/12/11 06:33:29;;;;;;;17.58;6.95;;;8.30;99.90;;;;;;5122674;27;20115;-66
2023/12/11 06:35:54;;;;;;;19.13;5.90;;;8.30;99.90;;;;;;5122297;27;20486;-65
2023/12/11 06:38:20;;;;;;;14.93;5.82;;;8.30;99.90;;;;;;5086029;27;20537;-65
2023/12/11 06:40:46;;;;;;;23.65;6.07;;;8.30;99.90;;;;;;5122880;27;20095;-65
2023/12/11 06:43:12;;;;;;;19.15;5.80;;;8.30;99.90;;;;;;5124203;27;20055;-65
2023/12/11 06:45:38;;;;;;;27.48;6.53;;;8.30;99.90;;;;;;5124506;27;20478;-65
2023/12/11 06:48:04;;;;;;;17.15;6.20;;;8.30;99.90;;;;;;5105144;27;20170;-66
2023/12/11 06:50:29;;;;;;;17.00;6.35;;;8.30;99.90;;;;;;5124960;27;20129;-66
2023/12/11 06:52:55;;;;;;;19.42;5.57;;;8.30;99.90;;;;;;5123961;27;21018;-66
2023/12/11 06:55:21;;;;;;;12.38;6.35;;;8.30;99.90;;;;;;5105283;27;20039;-66
2023/12/11 06:57:46;;;;;;;14.63;5.43;;;8.30;99.90;;;;;;5123962;27;20050;-66
2023/12/11 07:00:12;;;;;;;21.63;5.75;;;8.30;99.90;;;;;;5125099;27;20035;-66
2023/12/11 07:02:38;;;;;;;15.63;5.40;;;8.30;99.90;;;;;;5124581;27;20066;-66
2023/12/11 07:05:06;;;;;;;13.80;5.40;;;8.30;99.90;;;;;;5106180;27;20051;-66
2023/12/11 07:07:32;;;;;;;22.60;5.90;;;8.30;99.90;;;;;;5122494;27;20524;-66
2023/12/11 07:10:04;;;;;;;20.98;5.32;;;8.30;99.90;;;;;;5124784;27;20042;-67
2023/12/11 07:12:30;;;;;;;15.23;5.40;;;8.30;99.90;;;;;;5122448;27;20121;-66
2023/12/11 07:14:56;;;;;;;24.00;6.75;;;8.30;99.90;;;;;;5123576;27;20483;-66
2023/12/11 07:17:22;;;;;;;16.63;6.15;;;8.30;99.90;;;;;;5121218;27;20058;-66
2023/12/11 07:19:48;;;;;;;16.85;4.72;;;8.30;99.90;;;;;;5124429;27;20062;-66
2023/12/11 07:22:14;;;;;;;22.80;5.07;;;8.30;99.90;;;;;;5104898;27;20114;-66
2023/12/11 07:24:40;;;;;;;14.80;5.60;;;8.30;99.90;;;;;;5124577;27;20118;-65
2023/12/11 07:27:05;;;;;;;21.40;5.75;;;8.30;99.90;;;;;;5122998;27;20039;-66
2023/12/11 07:29:31;;;;;;;16.08;5.28;;;8.30;99.90;;;;;;5125018;27;20053;-66
2023/12/11 07:31:57;;;;;;;19.38;4.72;;;8.30;99.90;;;;;;5124125;27;20368;-66
2023/12/11 07:34:23;;;;;;;14.25;5.22;;;8.30;99.90;;;;;;5124429;27;20123;-65
2023/12/11 07:36:51;;;;;;;19.42;5.60;;;8.30;99.90;;;;;;5104592;27;20048;-66
2023/12/11 07:39:17;;;;;;;11.43;4.88;;;8.30;99.90;;;;;;5123652;27;20043;-66
2023/12/11 07:41:43;;;;;;;15.90;5.88;;;8.30;99.90;;;;;;5122275;27;20035;-66
2023/12/11 07:44:08;;;;;;;15.57;5.03;;;8.30;99.90;;;;;;5105215;27;20039;-66
2023/12/11 07:46:34;;;;;;;11.23;4.28;;;8.30;99.90;;;;;;5104325;27;20042;-66
2023/12/11 07:49:00;;;;;;;18.23;6.50;;;8.30;99.90;;;;;;5123379;27;20075;-66
2023/12/11 07:51:26;;;;;;;14.63;5.00;;;8.30;99.90;;;;;;5119934;27;20619;-66
2023/12/11 07:53:54;;;;;;;20.35;6.03;;;8.40;99.90;;;;;;5123201;27;20051;-66
2023/12/11 07:56:24;;;;;;;19.77;5.57;;;8.30;99.90;;;;;;5122538;27;20046;-65
2023/12/11 07:58:50;;;;;;;16.80;5.88;;;8.40;99.90;;;;;;5116522;27;20177;-66
2023/12/11 08:01:16;;;;;;;20.90;5.45;;;8.30;99.90;;;;;;5121503;27;20142;-67
2023/12/11 08:03:42;;;;;;;12.68;4.03;;;8.30;99.90;;;;;;5121725;27;20130;-65
2023/12/11 08:06:08;;;;;;;12.02;4.95;;;8.30;99.90;;;;;;5121570;27;20520;-65
2023/12/11 08:08:43;;;;;;;15.20;5.10;;;8.30;99.90;;;;;;5102465;27;20046;-66
2023/12/11 08:11:17;;;;;;;13.32;5.38;;;8.40;99.90;;;;;;5102739;27;20053;-66
2023/12/11 08:13:43;;;;;;;10.77;4.75;;;8.30;99.90;;;;;;5102610;27;20117;-65
2023/12/11 08:16:10;;;;;;;11.48;4.05;;;8.30;99.90;;;;;;5122449;27;20122;-66
2023/12/11 08:18:36;;;;;;;13.80;4.75;;;8.40;99.90;;;;;;5121349;27;20043;-66
2023/12/11 08:21:03;;;;;;;13.43;4.82;;;8.30;99.90;;;;;;5122555;27;20127;-65
2023/12/11 08:23:30;;;;;;;11.80;4.72;;;8.40;99.90;;;;;;5121881;27;20069;-66
2023/12/11 08:25:56;;;;;;;12.50;3.60;;;8.30;99.90;;;;;;5122615;27;20045;-66
2023/12/11 08:28:22;;;;;;;14.95;5.20;;;8.30;99.90;;;;;;5122390;27;20047;-65
2023/12/11 08:30:48;;;;;;;13.38;5.00;;;8.30;99.90;;;;;;5123304;27;20129;-66
2023/12/11 08:33:14;;;;;;;11.73;3.25;;;8.40;99.90;;;;;;5122327;27;20047;-65
2023/12/11 08:35:39;;;;;;;12.18;4.93;;;8.30;99.90;;;;;;5122898;27;20134;-66
2023/12/11 08:38:05;;;;;;;8.98;3.78;;;8.40;99.90;;;;;;5122330;27;20122;-66
2023/12/11 08:40:31;;;;;;;16.02;3.92;;;8.30;99.90;;;;;;5103566;27;20027;-66
2023/12/11 08:42:58;;;;;;;10.20;3.67;;;8.30;99.90;;;;;;5123377;27;20072;-66
2023/12/11 08:45:24;;;;;;;15.98;3.85;;;8.30;99.90;;;;;;5123573;27;20031;-65
2023/12/11 08:47:50;;;;;;;12.50;3.75;;;8.40;99.90;;;;;;5123014;27;20038;-65
2023/12/11 08:50:16;;;;;;;11.32;3.90;;;8.30;99.90;;;;;;5123449;27;20039;-65
2023/12/11 08:52:43;;;;;;;11.60;4.93;;;8.40;99.90;;;;;;5122164;28;20585;-65
2023/12/11 08:55:09;;;;;;;10.57;4.25;;;8.40;99.90;;;;;;5123004;27;20035;-65
2023/12/11 08:57:35;;;;;;;8.93;4.00;;;8.30;99.90;;;;;;5121830;28;20031;-66
2023/12/11 09:00:03;;;;;;;12.20;4.32;;;8.30;99.90;;;;;;5123122;27;20051;-65
2023/12/11 09:02:29;;;;;;;8.88;3.30;;;8.40;99.90;;;;;;5122682;27;20101;-65
2023/12/11 09:04:55;;;;;;;10.98;4.00;;;8.30;99.90;;;;;;5123120;28;20066;-65
2023/12/11 09:07:21;;;;;;;7.85;3.08;;;8.30;99.90;;;;;;5120152;27;20481;-65
2023/12/11 09:09:46;;;;;;;12.27;4.18;;;8.40;99.90;;;;;;5122949;28;20135;-65
2023/12/11 09:12:12;;;;;;;13.48;4.35;;;8.40;99.90;;;;;;5118735;28;20137;-65
2023/12/11 09:14:38;;;;;;;10.35;3.95;;;8.40;99.90;;;;;;5123187;28;20130;-66
2023/12/11 09:17:05;;;;;;;9.88;3.45;;;8.40;99.90;;;;;;5122111;27;20125;-66
2023/12/11 09:19:33;;;;;;;9.50;3.67;;;8.40;99.90;;;;;;5122686;28;20040;-65
2023/12/11 09:21:59;;;;;;;6.32;2.65;;;8.40;99.90;;;;;;5122532;28;20244;-65
2023/12/11 09:24:25;;;;;;;10.25;3.60;;;8.40;99.90;;;;;;5102923;28;20527;-66
2023/12/11 09:26:51;;;;;;;7.78;2.72;;;8.50;99.90;;;;;;5121363;28;20043;-65
2023/12/11 09:29:16;;;;;;;9.05;3.92;;;8.40;99.90;;;;;;5120472;28;20046;-66
2023/12/11 09:31:43;;;;;;;12.95;3.10;;;8.50;99.90;;;;;;5125699;27;20154;-67
2023/12/11 09:34:10;;;;;;;8.80;3.45;;;8.50;99.90;;;;;;5126437;27;20046;-65
2023/12/11 09:36:35;;;;;;;5.47;3.00;;;8.50;99.90;;;;;;5127008;27;20130;-65
2023/12/11 09:39:04;;;;;;;6.95;2.95;;;8.40;99.90;;;;;;5125837;27;20129;-65
2023/12/11 09:41:33;;;;;;;10.55;4.05;;;8.50;99.90;;;;;;5125480;27;20035;-66
2023/12/11 09:44:03;;;;;;;7.60;3.30;;;8.50;99.90;;;;;;5126908;27;20261;-66
2023/12/11 09:46:39;;;;;;;8.15;3.33;;;8.50;99.90;;;;;;5127840;27;20523;-65
2023/12/11 09:49:05;;;;;;;7.85;2.95;;;8.50;99.90;;;;;;5127693;27;20043;-66
2023/12/11 09:51:31;;;;;;;8.18;3.05;;;8.50;99.90;;;;;;5127144;27;20080;-65
2023/12/11 09:53:57;;;;;;;8.85;3.53;;;8.50;99.90;;;;;;5126073;27;20109;-65
2023/12/11 09:56:25;;;;;;;9.20;3.35;;;;;;;;;;5124625;27;20046;-65
2023/12/11 09:58:51;;;;;;;9.82;2.97;;;8.60;99.90;;;;;;5126180;27;20043;-65
2023/12/11 10:01:18;;;;;;;10.77;3.38;;;8.60;99.90;;;;;;5106439;27;20070;-65
2023/12/11 10:03:44;;;;;;;7.47;2.45;;;8.60;99.90;;;;;;5107350;27;20054;-65
2023/12/11 10:06:09;;;;;;;8.75;3.45;;;8.70;99.90;;;;;;5106668;27;20462;-65
2023/12/11 10:08:43;;;;;;;13.15;4.57;;;8.70;99.90;;;;;;5106348;27;20130;-66
2023/12/11 10:11:16;;;;;;;9.50;3.15;;;8.70;99.90;;;;;;5115867;27;20100;-66
2023/12/11 10:13:42;;;;;;;7.15;2.85;;;8.70;99.90;;;;;;5121403;27;20059;-65
2023/12/11 10:16:30;;;;;;;12.02;3.88;;;8.80;99.90;;;;;;5070311;27;20469;-66
2023/12/11 10:18:57;;;;;;;9.35;3.38;;;8.80;99.90;;;;;;5103473;27;20035;-66
2023/12/11 10:21:24;;;;;;;12.73;4.00;;;8.80;99.90;;;;;;5102980;27;20677;-65
2023/12/11 10:24:03;;;;;;;11.85;4.05;;;8.80;99.90;;;;;;5122079;27;20043;-66
2023/12/11 10:26:35;;;;;;;9.40;3.50;;;8.80;99.90;;;;;;5121457;27;20677;-65
2023/12/11 10:29:23;;;;;;;15.88;4.35;;;8.80;99.90;;;;;;5101617;27;20043;-65
2023/12/11 10:31:50;;;;;;;15.43;3.58;;;8.90;99.90;;;;;;5120204;27;20118;-65
2023/12/11 10:34:16;;;;;;;11.52;3.25;;;8.90;99.90;;;;;;5122018;27;20050;-65
2023/12/11 10:36:52;;;;;;;7.18;2.95;;;8.90;99.90;;;;;;5084817;27;20289;-65
2023/12/11 10:39:22;;;;;;;9.73;3.42;;;8.90;99.90;;;;;;5122327;27;20043;-65
2023/12/11 10:41:48;;;;;;;6.82;2.58;;;8.90;99.90;;;;;;5099180;27;20043;-66
2023/12/11 10:44:25;;;;;;;8.10;2.50;;;8.90;99.90;;;;;;5121474;27;20046;-65
2023/12/11 10:46:54;;;;;;;11.32;2.88;;;;;;;;;;5121400;27;20035;-66
2023/12/11 10:49:24;;;;;;;10.35;3.47;;;8.90;99.90;;;;;;5122462;27;20118;-65
2023/12/11 10:51:50;;;;;;;8.85;3.60;;;;;;;;;;5114487;27;20065;-66
2023/12/11 10:54:17;;;;;;;8.45;3.10;;;;;;;;;;5115819;27;20228;-66
2023/12/11 10:56:44;;;;;;;8.60;2.53;;;;;;;;;;5081486;27;20383;-66
2023/12/11 10:59:13;;;;;;;7.55;2.90;;;8.90;99.90;;;;;;5110067;27;20066;-66
2023/12/11 11:01:44;;;;;;;6.50;4.40;;;8.90;99.90;;;;;;5080237;27;20054;-66
2023/12/11 11:04:11;;;;;;;16.85;4.00;;;;;;;;;;5119292;27;20065;-66
2023/12/11 11:06:54;;;;;;;10.95;2.72;;;9.00;99.90;;;;;;5117040;27;20426;-66
2023/12/11 11:09:32;;;;;;;7.97;3.15;;;9.00;99.90;;;;;;5119750;27;20039;-66
2023/12/11 11:12:12;;;;;;;5.95;2.55;;;9.00;99.90;;;;;;5101188;27;20045;-66
2023/12/11 11:14:46;;;;;;;8.55;3.20;;;9.00;99.90;;;;;;5119080;27;20398;-66
2023/12/11 11:17:12;;;;;;;14.10;4.22;;;9.00;99.90;;;;;;5120707;27;20652;-66
2023/12/11 11:19:58;;;;;;;8.73;2.72;;;;;;;;;;5100861;27;20055;-66
2023/12/11 11:22:24;;;;;;;6.60;3.35;;;9.00;99.90;;;;;;5120033;27;20031;-65
2023/12/11 11:24:50;;;;;;;9.93;2.95;;;9.20;99.90;;;;;;5120846;27;20035;-66
2023/12/11 11:27:42;;;;;;;6.20;3.40;;;9.20;99.90;;;;;;5117723;27;20067;-66
2023/12/11 11:30:08;;;;;;;9.32;3.53;;;9.20;99.90;;;;;;5120894;27;20167;-65
2023/12/11 11:32:57;;;;;;;5.68;2.10;;;;;;;;;;5084577;27;21118;-65
2023/12/11 11:35:41;;;;;;;7.22;2.58;;;;;;;;;;5101469;27;20384;-66
2023/12/11 11:38:08;;;;;;;5.03;2.75;;;;;;;;;;5100063;27;20046;-66
2023/12/11 11:40:34;;;;;;;7.80;2.55;;;;;;;;;;5064141;27;20038;-66
2023/12/11 11:43:00;;;;;;;8.60;3.38;;;;;;;;;;5120107;27;20043;-67
2023/12/11 11:45:27;;;;;;;11.88;2.83;;;;;;;;;;5100415;27;20043;-65
2023/12/11 11:47:53;;;;;;;7.20;2.97;;;;;;;;;;5100755;27;20050;-65
2023/12/11 11:50:19;;;;;;;9.23;3.05;;;;;;;;;;5122246;27;20412;-65
2023/12/11 11:52:50;;;;;;;10.73;3.00;;;;;;;;;;5119919;27;20096;-66
2023/12/11 11:55:23;;;;;;;10.52;3.22;;;;;;;;;;5118642;27;20503;-66
2023/12/11 11:57:49;;;;;;;;;;;;;;;;;;5121039;27;20390;-65
2023/12/11 12:00:22;;;;;;;12.07;3.30;;;;;;;;;;5120975;27;19927;-66
2023/12/11 12:02:48;;;;;;;9.38;3.15;;;;;;;;;;5113890;27;20805;-66
2023/12/11 12:05:14;;;;;;;8.43;3.22;;;9.20;99.90;;;;;;5117964;27;20223;-66
2023/12/11 12:07:40;;;;;;;12.20;3.45;;;;;;;;;;5121298;27;20075;-65
2023/12/11 12:10:12;;;;;;;10.93;3.05;;;;;;;;;;5115006;27;20043;-65
2023/12/11 12:12:38;;;;;;;11.40;3.83;;;9.60;99.90;;;;;;5122737;27;20053;-65
2023/12/11 12:15:10;;;;;;;8.52;3.22;;;9.80;99.90;;;;;;5121937;27;20031;-65
2023/12/11 12:17:39;;;;;;;9.40;3.20;;;9.70;99.90;;;;;;5118295;27;20046;-65
2023/12/11 12:20:10;;;;;;;7.93;2.70;;;9.70;99.90;;;;;;5122029;27;20296;-65
2023/12/11 12:22:36;;;;;;;6.18;2.47;;;9.70;99.90;;;;;;5122006;27;20039;-65
2023/12/11 12:25:03;;;;;;;7.97;2.67;;;9.60;99.90;;;;;;5123180;27;20046;-66
2023/12/11 12:27:30;;;;;;;7.60;2.58;;;9.70;99.90;;;;;;5085268;27;20042;-65
2023/12/11 12:29:57;;;;;;;9.10;3.05;;;9.60;99.90;;;;;;5105075;28;20035;-67
2023/12/11 12:32:24;;;;;;;7.30;2.50;;;9.60;99.90;;;;;;5123964;27;20331;-66
2023/12/11 12:34:51;;;;;;;5.47;1.98;;;9.50;99.90;;;;;;5123879;27;20054;-66
2023/12/11 12:37:18;;;;;;;6.15;3.22;;;9.50;99.90;;;;;;5122846;27;20072;-66
2023/12/11 12:39:44;;;;;;;5.40;1.95;;;9.50;99.90;;;;;;5102766;27;20174;-66
2023/12/11 12:42:10;;;;;;;9.35;3.33;;;9.50;99.90;;;;;;5122091;27;20409;-66
2023/12/11 12:44:39;;;;;;;6.47;2.95;;;9.40;99.90;;;;;;5101956;28;20027;-66
2023/12/11 12:47:08;;;;;;;8.18;2.63;;;9.40;99.90;;;;;;5121040;27;20039;-66
2023/12/11 12:49:33;;;;;;;6.90;2.25;;;9.40;99.90;;;;;;5068781;28;20069;-65
2023/12/11 12:52:00;;;;;;;7.15;2.13;;;9.40;99.90;;;;;;5117193;27;20066;-65
2023/12/11 12:54:26;;;;;;;5.45;2.33;;;9.30;99.90;;;;;;5066748;28;20724;-65